Time;durP1;ratioP1;P1;durP2;ratioP2;P2;SDS_P1;SDS_P2;PMS_P1;PMS_P2;Temp;Humidity;BMP_temperature;BMP_pressure;BME280_temperature;BME280_humidity;BME280_pressure;Samples;Min_cycle;Max_cycle;Signal;HPM_P1;HPM_P2
2022/10/06 00:01:44;;;;;;;5.10;1.13;;;;;;;14.09;72.63;102074.19;6121956;23;20018;-87
2022/10/06 00:04:09;;;;;;;5.03;1.17;;;;;;;14.08;72.47;102086.56;6123257;23;20013;-86
2022/10/06 00:06:34;;;;;;;5.38;1.90;;;;;;;14.07;72.53;102091.94;6122820;23;20037;-87
2022/10/06 00:09:00;;;;;;;6.22;1.02;;;;;;;14.04;72.20;102093.81;6123021;23;20021;-87
2022/10/06 00:11:25;;;;;;;6.03;1.45;;;;;;;14.04;72.38;102104.44;6123918;23;20002;-87
2022/10/06 00:13:50;;;;;;;2.80;0.80;;;;;;;13.99;72.85;102111.72;6124681;23;20077;-87
2022/10/06 00:16:21;;;;;;;6.57;1.40;;;;;;;13.98;72.67;102120.59;6124582;23;20005;-87
2022/10/06 00:18:46;;;;;;;5.60;1.10;;;;;;;13.94;72.97;102118.97;6124613;23;20002;-87
2022/10/06 00:21:12;;;;;;;4.75;1.17;;;;;;;13.90;72.35;102116.47;6124032;23;20013;-87
2022/10/06 00:23:37;;;;;;;11.57;1.50;;;;;;;13.79;72.45;102114.16;6124477;23;20426;-87
2022/10/06 00:26:02;;;;;;;6.32;1.10;;;;;;;13.83;73.17;102137.06;6124203;23;20009;-87
2022/10/06 00:28:28;;;;;;;5.15;1.00;;;;;;;13.78;73.15;102137.22;6122550;23;20013;-88
2022/10/06 00:30:55;;;;;;;2.33;1.00;;;;;;;13.72;73.19;102134.78;6122258;23;20443;-87
2022/10/06 00:33:20;;;;;;;6.47;1.73;;;;;;;13.73;73.47;102143.59;6147660;23;20013;-87
2022/10/06 00:35:47;;;;;;;9.05;1.60;;;;;;;13.74;73.04;102150.66;6121934;23;20426;-87
2022/10/06 00:38:15;;;;;;;7.20;1.48;;;;;;;13.70;73.88;102160.50;6122770;23;20006;-86
2022/10/06 00:40:49;;;;;;;5.95;1.10;;;;;;;13.66;73.44;102158.00;6123688;23;20010;-88
2022/10/06 00:43:50;;;;;;;7.80;1.45;;;;;;;13.66;73.48;102171.28;6124479;23;20170;-87
2022/10/06 00:46:33;;;;;;;3.58;1.00;;;;;;;13.63;74.30;102168.75;6122937;23;19998;-86
2022/10/06 00:49:27;;;;;;;5.85;1.20;;;;;;;13.65;74.34;102170.41;6122492;23;20430;-86
2022/10/06 00:52:07;;;;;;;4.25;1.27;;;;;;;13.62;74.13;102170.53;6123489;23;20009;-87
2022/10/06 00:54:34;;;;;;;9.80;1.23;;;;;;;13.63;74.18;102174.94;6124199;23;20502;-87
2022/10/06 00:57:00;;;;;;;4.95;1.50;;;;;;;13.58;74.36;102168.88;6124015;23;20010;-86
2022/10/06 00:59:26;;;;;;;5.20;1.05;;;;;;;13.57;74.72;102176.88;6124139;23;20064;-87
2022/10/06 01:02:00;;;;;;;8.73;1.30;;;;;;;13.58;74.15;102182.19;6123338;23;20006;-86
2022/10/06 01:04:29;;;;;;;4.32;1.20;;;;;;;13.61;74.00;102179.41;6124698;23;20006;-87
2022/10/06 01:06:57;;;;;;;8.75;1.30;;;;;;;13.61;73.77;102184.72;6123855;23;20452;-87
2022/10/06 01:09:24;;;;;;;7.15;1.30;;;;;;;13.63;73.63;102184.69;6123896;23;20006;-87
2022/10/06 01:11:52;;;;;;;9.77;1.50;;;;;;;13.56;73.77;102185.78;6121775;23;20422;-87
2022/10/06 01:14:20;;;;;;;6.95;1.50;;;;;;;13.51;74.64;102197.41;6122577;23;20010;-87
2022/10/06 01:16:52;;;;;;;7.72;1.15;;;;;;;13.49;74.19;102203.72;6123934;23;20006;-87
2022/10/06 01:19:38;;;;;;;5.63;1.25;;;;;;;13.48;73.38;102200.19;6124323;23;20025;-87
2022/10/06 01:22:07;;;;;;;5.60;1.08;;;;;;;13.43;73.98;102209.19;6123278;23;20010;-87
2022/10/06 01:24:33;;;;;;;4.78;1.13;;;;;;;13.40;73.59;102214.63;6124347;23;20437;-86
2022/10/06 01:26:59;;;;;;;8.20;1.42;;;;;;;13.42;73.34;102220.75;6123592;23;20028;-87
2022/10/06 01:29:25;;;;;;;7.82;1.63;;;;;;;13.41;73.27;102224.31;6122443;23;20009;-87
2022/10/06 01:31:51;;;;;;;6.68;1.30;;;;;;;13.37;73.58;102225.31;6123165;23;20002;-87
2022/10/06 01:34:16;;;;;;;5.72;1.60;;;;;;;13.38;72.85;102233.28;6122429;23;20010;-87
2022/10/06 01:36:42;;;;;;;6.13;1.25;;;;;;;13.37;73.04;102233.28;6123573;23;20010;-88
2022/10/06 01:39:07;;;;;;;5.95;1.77;;;;;;;13.35;73.14;102225.38;6123757;23;20033;-87
2022/10/06 01:41:33;;;;;;;4.75;1.45;;;;;;;13.37;72.51;102243.91;6122824;23;20005;-87
2022/10/06 01:43:59;;;;;;;7.38;1.50;;;;;;;13.37;72.28;102243.91;6122640;23;20025;-87
2022/10/06 01:46:24;;;;;;;3.72;1.40;;;;;;;13.32;72.42;102246.72;6122081;23;20009;-87
2022/10/06 01:48:49;;;;;;;10.13;1.60;;;;;;;13.25;72.62;102238.06;6121936;23;20072;-87
2022/10/06 01:51:15;;;;;;;10.27;1.50;;;;;;;13.24;73.46;102248.72;6121183;23;20044;-87
2022/10/06 01:53:41;;;;;;;6.82;1.50;;;;;;;13.15;73.43;102248.94;6123961;23;20006;-86
2022/10/06 01:56:07;;;;;;;7.10;1.30;;;;;;;13.13;73.25;102259.63;6122000;23;20013;-86
2022/10/06 01:58:32;;;;;;;6.35;1.83;;;;;;;13.08;73.12;102253.56;6121782;23;20013;-87
2022/10/06 02:01:05;;;;;;;4.90;1.27;;;;;;;13.12;72.62;102264.97;6122555;23;20454;-86
2022/10/06 02:03:33;;;;;;;7.88;1.67;;;;;;;13.14;73.73;102269.31;6124027;23;20430;-87
2022/10/06 02:05:58;;;;;;;7.05;1.55;;;;;;;13.13;72.44;102262.25;6121806;23;20009;-87
2022/10/06 02:08:24;;;;;;;11.75;1.52;;;;;;;13.10;72.97;102250.84;6121906;23;20006;-87
2022/10/06 02:10:49;;;;;;;10.50;1.50;;;;;;;13.14;72.70;102269.31;6122824;23;20044;-88
2022/10/06 02:13:15;;;;;;;6.43;1.40;;;;;;;13.08;72.31;102269.50;6123740;23;20081;-87
2022/10/06 02:15:40;;;;;;;7.97;1.63;;;;;;;13.05;72.20;102269.56;6123628;23;20021;-87
2022/10/06 02:18:05;;;;;;;5.63;1.35;;;;;;;13.07;72.52;102283.69;6121513;23;20419;-87
2022/10/06 02:20:30;;;;;;;10.80;1.92;;;;;;;13.05;72.34;102284.63;6121006;23;20061;-87
2022/10/06 02:22:56;;;;;;;5.97;1.90;;;;;;;12.96;72.31;102272.47;6121953;23;20002;-87
2022/10/06 02:25:21;;;;;;;9.32;2.10;;;;;;;12.95;72.51;102294.63;6123748;23;20010;-87
2022/10/06 02:27:46;;;;;;;6.70;1.50;;;;;;;12.93;72.79;102297.34;6121576;23;20006;-88
2022/10/06 02:30:13;;;;;;;5.07;1.30;;;;;;;12.90;72.18;102308.03;6123578;23;20057;-87
2022/10/06 02:32:39;;;;;;;9.25;1.92;;;;;;;12.91;73.09;102314.19;6122928;23;20431;-87
2022/10/06 02:35:05;;;;;;;7.57;1.50;;;;;;;12.84;72.67;102313.50;6123428;23;20335;-87
2022/10/06 02:37:31;;;;;;;9.00;2.00;;;;;;;12.84;72.60;102318.81;6123102;23;20013;-87
2022/10/06 02:39:56;;;;;;;6.50;1.38;;;;;;;12.79;72.92;102310.09;6121755;23;20002;-86
2022/10/06 02:42:22;;;;;;;10.82;1.50;;;;;;;12.70;72.93;102310.34;6122578;23;20006;-87
2022/10/06 02:44:49;;;;;;;7.55;1.73;;;;;;;12.71;72.96;102326.22;6123669;23;20006;-86
2022/10/06 02:47:14;;;;;;;6.70;1.48;;;;;;;12.69;73.03;102330.69;6121428;23;20005;-87
2022/10/06 02:49:40;;;;;;;10.88;1.77;;;;;;;12.69;73.11;102336.00;6123569;23;20327;-87
2022/10/06 02:52:05;;;;;;;9.57;1.58;;;;;;;12.63;73.41;102317.56;6124611;23;20089;-87
2022/10/06 02:54:31;;;;;;;8.13;1.55;;;;;;;12.65;74.16;102339.63;6125667;23;20361;-87
2022/10/06 02:56:56;;;;;;;5.90;1.52;;;;;;;12.63;73.63;102344.09;6125311;23;20036;-86
2022/10/06 02:59:21;;;;;;;7.15;1.65;;;;;;;12.59;73.40;102346.84;6125203;23;20018;-87
2022/10/06 03:01:46;;;;;;;10.40;1.52;;;;;;;12.51;74.03;102331.16;6123022;23;20072;-86
2022/10/06 03:04:12;;;;;;;6.93;1.58;;;;;;;12.52;73.62;102347.00;6123840;23;20434;-87
2022/10/06 03:06:37;;;;;;;10.65;1.50;;;;;;;12.51;74.30;102362.97;6124071;23;20005;-87
2022/10/06 03:09:05;;;;;;;8.20;1.75;;;;;;;12.48;74.16;102369.22;6124884;23;20005;-87
2022/10/06 03:11:33;;;;;;;6.57;1.45;;;;;;;12.43;74.10;102363.16;6124553;23;20068;-86
2022/10/06 03:13:59;;;;;;;8.07;2.05;;;;;;;12.40;74.20;102372.94;6125649;23;20024;-87
2022/10/06 03:16:30;;;;;;;7.70;1.30;;;;;;;12.44;74.36;102379.94;6123414;23;20311;-87
2022/10/06 03:18:56;;;;;;;11.25;1.58;;;;;;;12.41;74.28;102383.53;6123445;23;20060;-86
2022/10/06 03:21:24;;;;;;;7.38;1.40;;;;;;;12.39;74.22;102384.47;6124437;23;20126;-87
2022/10/06 03:23:51;;;;;;;12.68;1.80;;;;;;;12.37;74.55;102388.97;6123842;23;20037;-87
2022/10/06 03:26:19;;;;;;;11.15;2.17;;;;;;;12.31;74.71;102387.31;6123382;23;20002;-87
2022/10/06 03:28:44;;;;;;;11.23;2.40;;;;;;;12.20;74.87;102382.25;6124717;23;20010;-87
2022/10/06 03:31:10;;;;;;;7.72;1.63;;;;;;;12.13;74.97;102378.00;6123022;23;20501;-87
2022/10/06 03:33:36;;;;;;;9.15;1.60;;;;;;;12.11;75.45;102387.75;6123641;23;20006;-87
2022/10/06 03:36:03;;;;;;;11.13;2.00;;;;;;;12.10;75.25;102393.97;6123582;23;20041;-87
2022/10/06 03:38:31;;;;;;;6.70;1.52;;;;;;;12.12;75.51;102407.16;6122911;23;20319;-87
2022/10/06 03:41:08;;;;;;;4.53;1.65;;;;;;;12.12;75.10;102409.81;6124462;23;20034;-87
2022/10/06 03:43:35;;;;;;;7.13;2.20;;;;;;;12.05;75.29;102416.19;6125276;23;20064;-88
2022/10/06 03:46:01;;;;;;;6.75;1.60;;;;;;;11.99;75.82;102414.53;6124917;23;20456;-87
2022/10/06 03:48:34;;;;;;;11.30;2.08;;;;;;;12.00;75.98;102427.75;6122786;23;20048;-87
2022/10/06 03:51:05;;;;;;;7.50;1.77;;;;;;;11.93;75.73;102415.50;6124283;23;20415;-87
2022/10/06 03:53:32;;;;;;;7.63;1.73;;;;;;;11.90;76.01;102414.72;6123226;23;20044;-88
2022/10/06 03:56:10;;;;;;;7.75;1.42;;;;;;;11.95;75.66;102431.41;6123707;23;20284;-87
2022/10/06 03:58:38;;;;;;;6.18;2.05;;;;;;;11.84;75.91;102426.28;6123060;23;20068;-87
2022/10/06 04:01:06;;;;;;;12.38;2.10;;;;;;;11.83;75.87;102445.75;6123223;23;20025;-87
2022/10/06 04:03:32;;;;;;;13.82;2.03;;;;;;;11.73;76.26;102433.56;6123514;23;20006;-87
2022/10/06 04:06:00;;;;;;;13.88;2.35;;;;;;;11.72;75.92;102445.06;6124617;23;20009;-87
2022/10/06 04:08:27;;;;;;;9.32;1.88;;;;;;;11.66;76.52;102451.38;6122852;23;20016;-88
2022/10/06 04:10:53;;;;;;;11.02;1.95;;;;;;;11.69;76.20;102461.88;6122458;23;20009;-87
2022/10/06 04:13:20;;;;;;;9.85;2.03;;;;;;;11.61;76.24;102466.47;6123357;23;20010;-87
2022/10/06 04:15:46;;;;;;;14.20;1.90;;;;;;;11.58;76.47;102471.81;6124265;23;20525;-87
2022/10/06 04:18:13;;;;;;;8.10;1.95;;;;;;;11.54;76.88;102472.78;6124207;23;20072;-87
2022/10/06 04:20:38;;;;;;;7.35;1.83;;;;;;;11.55;77.11;102471.00;6124101;23;20150;-87
2022/10/06 04:23:04;;;;;;;6.90;2.35;;;;;;;11.56;76.16;102478.03;6123212;23;20005;-86
2022/10/06 04:25:30;;;;;;;8.95;1.60;;;;;;;11.54;76.13;102479.84;6124823;23;20489;-87
2022/10/06 04:27:56;;;;;;;13.32;2.20;;;;;;;11.52;76.12;102482.53;6122546;23;20431;-87
2022/10/06 04:30:22;;;;;;;9.70;1.27;;;;;;;11.56;76.20;102492.16;6122975;23;20002;-87
2022/10/06 04:32:47;;;;;;;10.32;1.70;;;;;;;11.55;76.00;102493.06;6122285;23;20010;-87
2022/10/06 04:35:13;;;;;;;6.88;2.08;;;;;;;11.54;76.27;102496.59;6124809;23;20009;-87
2022/10/06 04:37:38;;;;;;;8.63;1.42;;;;;;;11.46;76.31;102494.09;6124102;23;20006;-88
2022/10/06 04:40:04;;;;;;;13.00;2.40;;;;;;;11.40;76.26;102491.56;6124937;23;20048;-87
2022/10/06 04:42:30;;;;;;;9.68;1.98;;;;;;;11.39;76.33;102500.41;6122003;23;20057;-87
2022/10/06 04:44:55;;;;;;;13.50;2.40;;;;;;;11.33;76.56;102499.59;6123106;23;20029;-88
2022/10/06 04:47:20;;;;;;;13.95;1.88;;;;;;;11.28;76.62;102496.16;6124549;23;20005;-87
2022/10/06 04:49:46;;;;;;;9.63;2.30;;;;;;;11.26;77.14;102508.56;6124279;23;20033;-88
2022/10/06 04:52:11;;;;;;;6.47;1.77;;;;;;;11.28;76.57;102510.28;6123772;23;20006;-87
2022/10/06 04:54:36;;;;;;;6.43;2.30;;;;;;;11.20;76.87;102499.84;6124422;23;20005;-87
2022/10/06 04:57:02;;;;;;;12.85;2.05;;;;;;;11.24;76.36;102511.25;6124487;23;20006;-87
2022/10/06 05:02:11;;;;;;;18.83;2.85;;;;;;;11.15;76.87;102517.56;6124115;23;20033;-87
2022/10/06 05:04:36;;;;;;;14.73;2.33;;;;;;;11.10;76.50;102513.25;6122742;23;20343;-88
2022/10/06 05:07:01;;;;;;;14.52;2.33;;;;;;;11.10;76.94;102529.13;6122744;23;20089;-88
2022/10/06 05:09:26;;;;;;;15.88;2.30;;;;;;;11.10;76.78;102539.72;6122301;23;20085;-87
2022/10/06 05:11:52;;;;;;;10.48;2.38;;;;;;;11.05;77.07;102547.72;6121623;23;20129;-87
2022/10/06 05:14:17;;;;;;;14.48;2.53;;;;;;;11.04;76.72;102545.94;6122986;23;20006;-87
2022/10/06 05:16:42;;;;;;;8.95;1.98;;;;;;;10.98;76.93;102544.28;6124099;23;20123;-88
2022/10/06 05:19:08;;;;;;;12.43;2.10;;;;;;;10.95;77.13;102559.31;6123925;23;20073;-87
2022/10/06 05:21:33;;;;;;;8.85;2.03;;;;;;;10.93;77.41;102556.69;6121862;23;20430;-87
2022/10/06 05:23:59;;;;;;;8.05;1.95;;;;;;;10.86;77.36;102556.78;6122624;23;20009;-88
2022/10/06 05:26:26;;;;;;;7.78;2.35;;;;;;;10.90;77.14;102571.75;6122318;23;20013;-87
2022/10/06 05:28:52;;;;;;;9.52;1.90;;;;;;;10.87;77.28;102563.88;6124217;23;20002;-87
2022/10/06 05:31:19;;;;;;;9.88;2.10;;;;;;;10.86;77.25;102577.97;6123443;23;20133;-88
2022/10/06 05:33:45;;;;;;;14.00;2.00;;;;;;;10.80;77.10;102581.56;6122588;23;20009;-88
2022/10/06 05:36:12;;;;;;;12.50;2.45;;;;;;;10.82;77.04;102582.44;6122324;23;20087;-87
2022/10/06 05:38:38;;;;;;;8.10;1.95;;;;;;;10.75;77.38;102594.00;6123631;23;20018;-87
2022/10/06 05:41:11;;;;;;;10.43;2.13;;;;;;;10.74;77.19;102586.97;6121618;23;20414;-87
2022/10/06 05:43:38;;;;;;;15.43;2.70;;;;;;;10.64;77.28;102582.69;6123621;23;20092;-88
2022/10/06 05:46:05;;;;;;;9.57;2.40;;;;;;;10.66;77.38;102602.91;6122250;23;20412;-87
2022/10/06 05:48:31;;;;;;;15.27;2.63;;;;;;;10.67;77.03;102615.25;6123632;23;20073;-88
2022/10/06 05:51:08;;;;;;;11.15;2.20;;;;;;;10.61;77.35;102604.75;6122976;23;20528;-87
2022/10/06 05:53:35;;;;;;;11.77;2.28;;;;;;;10.61;77.66;102615.31;6122197;23;20010;-87
2022/10/06 05:56:06;;;;;;;21.70;2.42;;;;;;;10.63;77.25;102612.66;6121950;23;20029;-87
2022/10/06 05:58:33;;;;;;;13.93;2.60;;;;;;;10.55;77.33;102611.88;6121881;23;20005;-88
2022/10/06 06:01:24;;;;;;;12.90;2.50;;;;;;;10.64;77.15;102620.59;6121116;23;20018;-87
2022/10/06 06:04:04;;;;;;;10.65;2.03;;;;;;;10.58;77.48;102627.69;6122249;23;20010;-87
2022/10/06 06:06:30;;;;;;;12.57;2.25;;;;;;;10.59;77.73;102624.19;6122349;23;20002;-88
2022/10/06 06:08:57;;;;;;;11.20;2.58;;;;;;;10.60;77.19;102632.09;6121765;23;20339;-87
2022/10/06 06:11:26;;;;;;;16.65;2.17;;;;;;;10.62;76.98;102642.66;6123079;23;20140;-87
2022/10/06 06:13:56;;;;;;;13.23;2.10;;;;;;;10.62;77.31;102648.81;6123786;23;20422;-87
2022/10/06 06:16:22;;;;;;;9.98;2.65;;;;;;;10.62;77.17;102642.66;6123789;23;20066;-87
2022/10/06 06:18:47;;;;;;;8.45;1.98;;;;;;;10.63;77.14;102637.34;6121581;23;20026;-87
2022/10/06 06:21:13;;;;;;;11.13;2.40;;;;;;;10.67;76.82;102651.41;6121176;23;20057;-88
2022/10/06 06:23:45;;;;;;;14.82;2.70;;;;;;;10.67;77.15;102654.91;6122131;23;20028;-87
2022/10/06 06:26:16;;;;;;;15.35;2.60;;;;;;;10.63;77.00;102650.59;6122269;23;20502;-89
2022/10/06 06:28:42;;;;;;;12.00;2.80;;;;;;;10.67;76.98;102652.28;6121563;23;20014;-88
2022/10/06 06:31:12;;;;;;;16.83;3.10;;;;;;;10.75;76.94;102664.53;6122771;23;20002;-87
2022/10/06 06:33:39;;;;;;;12.88;3.08;;;;;;;10.75;77.11;102661.91;6146758;23;20033;-87
2022/10/06 06:36:12;;;;;;;11.40;2.05;;;;;;;10.78;76.50;102669.81;6123596;23;20009;-87
2022/10/06 06:38:37;;;;;;;10.18;2.25;;;;;;;10.72;76.79;102650.47;6123609;23;20378;-87
2022/10/06 06:41:03;;;;;;;8.63;2.08;;;;;;;10.79;76.89;102661.84;6122821;23;20017;-87
2022/10/06 06:43:28;;;;;;;14.27;3.13;;;;;;;10.83;76.65;102671.50;6123709;23;20006;-87
2022/10/06 06:46:02;;;;;;;13.63;2.70;;;;;;;10.87;76.52;102677.66;6123473;23;20026;-87
2022/10/06 06:48:27;;;;;;;10.25;2.20;;;;;;;10.77;76.67;102661.00;6121571;23;20010;-88
2022/10/06 06:50:57;;;;;;;13.70;2.33;;;;;;;10.88;76.62;102679.38;6121201;23;20453;-87
2022/10/06 06:53:23;;;;;;;14.10;3.08;;;;;;;10.89;76.81;102683.78;6121978;23;20002;-88
2022/10/06 06:55:49;;;;;;;17.50;3.17;;;;;;;10.91;76.56;102689.91;6122326;23;20010;-88
2022/10/06 06:58:15;;;;;;;9.25;2.38;;;;;;;11.01;76.52;102688.06;6123139;23;20041;-88
2022/10/06 07:00:40;;;;;;;17.75;2.63;;;;;;;10.94;76.76;102684.59;6121251;23;20014;-87
2022/10/06 07:03:06;;;;;;;16.67;2.92;;;;;;;11.00;76.75;102692.44;6123230;23;20085;-88
2022/10/06 07:05:31;;;;;;;10.40;2.78;;;;;;;11.07;76.36;102701.22;6122024;23;20438;-86
2022/10/06 07:07:56;;;;;;;15.88;2.58;;;;;;;11.13;76.25;102709.94;6121367;23;20013;-88
2022/10/06 07:10:21;;;;;;;14.02;2.97;;;;;;;11.13;76.10;102707.28;6121828;23;20014;-87
2022/10/06 07:12:47;;;;;;;9.85;2.05;;;;;;;11.22;75.87;102711.59;6120937;23;20008;-87
2022/10/06 07:26:21;;;;;;;9.32;2.95;;;;;;;11.58;75.12;102733.19;6122113;23;20073;-86
2022/10/06 07:28:48;;;;;;;13.52;2.63;;;;;;;11.62;74.88;102735.78;6122601;23;20002;-86
2022/10/06 07:31:15;;;;;;;15.43;3.47;;;;;;;11.65;74.95;102735.72;6122400;23;19998;-87
2022/10/06 07:33:40;;;;;;;15.15;3.28;;;;;;;11.71;74.63;102745.38;6123464;23;20387;-86
2022/10/06 07:36:06;;;;;;;15.70;3.00;;;;;;;11.75;74.24;102757.69;6123356;23;20044;-86
2022/10/06 07:38:31;;;;;;;10.05;2.50;;;;;;;11.81;74.20;102757.59;6122758;23;20029;-86
2022/10/06 07:40:57;;;;;;;11.68;2.13;;;;;;;11.98;73.89;102766.22;6122328;23;20032;-85
2022/10/06 07:43:22;;;;;;;9.95;2.83;;;;;;;12.05;73.69;102763.47;6123396;23;20339;-85
2022/10/06 07:45:48;;;;;;;18.38;3.22;;;;;;;12.19;72.77;102772.94;6122982;23;20012;-85
2022/10/06 07:48:21;;;;;;;15.43;3.03;;;;;;;12.39;72.40;102777.03;6124376;23;20074;-85
2022/10/06 07:50:50;;;;;;;13.18;2.38;;;;;;;12.60;71.98;102775.81;6124039;23;20002;-84
2022/10/06 07:53:17;;;;;;;14.68;2.58;;;;;;;12.77;71.26;102784.31;6122983;23;20014;-86
2022/10/06 07:55:45;;;;;;;14.10;2.78;;;;;;;12.95;71.42;102788.41;6124623;23;20002;-85
2022/10/06 07:58:12;;;;;;;13.50;2.58;;;;;;;13.23;70.82;102794.09;6122423;23;20002;-84
2022/10/06 08:00:38;;;;;;;14.90;3.42;;;;;;;13.41;68.96;102788.41;6122178;23;20053;-84
2022/10/06 08:03:04;;;;;;;13.70;2.42;;;;;;;13.74;68.60;102792.13;6124153;23;20093;-84
2022/10/06 08:05:30;;;;;;;11.05;2.30;;;;;;;14.07;67.17;102794.06;6124539;23;20066;-84
2022/10/06 08:07:57;;;;;;;14.88;2.83;;;;;;;14.36;66.51;102793.34;6122759;23;20006;-85
2022/10/06 08:10:23;;;;;;;10.57;2.35;;;;;;;14.72;65.23;102797.78;6124062;23;20002;-84
2022/10/06 08:12:48;;;;;;;9.75;2.25;;;;;;;14.82;64.21;102792.22;6123549;23;20001;-85
2022/10/06 08:15:13;;;;;;;9.65;2.20;;;;;;;15.03;63.44;102804.97;6122753;23;20426;-85
2022/10/06 08:17:39;;;;;;;20.27;3.38;;;;;;;15.32;62.79;102797.00;6122561;23;20009;-84
2022/10/06 08:20:08;;;;;;;11.98;2.40;;;;;;;15.78;62.22;102816.16;6123974;23;20170;-85
2022/10/06 08:22:34;;;;;;;12.75;3.03;;;;;;;16.19;60.84;102808.66;6123470;23;20308;-85
2022/10/06 08:25:00;;;;;;;14.65;2.33;;;;;;;16.48;59.89;102807.69;6124503;23;20084;-84
2022/10/06 08:27:29;;;;;;;10.30;2.28;;;;;;;16.59;59.55;102816.19;6124140;23;20010;-84
2022/10/06 08:29:55;;;;;;;12.20;2.33;;;;;;;16.66;58.93;102820.41;6123885;23;20076;-84
2022/10/06 08:32:22;;;;;;;12.25;2.17;;;;;;;16.80;57.37;102822.66;6123434;23;20370;-85
2022/10/06 08:34:47;;;;;;;11.77;2.85;;;;;;;17.16;56.69;102831.19;6124273;23;20040;-85
2022/10/06 08:37:26;;;;;;;9.75;2.17;;;;;;;17.79;55.65;102832.38;6124103;23;20005;-85
2022/10/06 08:39:52;;;;;;;9.38;2.72;;;;;;;18.33;53.80;102833.81;6122047;23;20009;-84
2022/10/06 08:42:26;;;;;;;7.22;2.15;;;;;;;19.28;54.10;102843.16;6123060;23;20445;-85
2022/10/06 08:45:00;;;;;;;10.10;2.53;;;;;;;20.05;50.08;102850.34;6124312;23;20419;-84
2022/10/06 08:47:29;;;;;;;12.85;2.60;;;;;;;20.36;48.57;102844.34;6122215;23;20010;-84
2022/10/06 08:49:55;;;;;;;10.20;1.83;;;;;;;21.22;47.01;102840.00;6124037;23;20013;-85
2022/10/06 08:52:59;;;;;;;10.35;2.45;;;;;;;21.66;47.37;102848.38;6123244;23;20001;-85
2022/10/06 08:55:31;;;;;;;9.73;2.42;;;;;;;22.30;43.50;102850.16;6124263;23;20012;-86
2022/10/06 08:58:29;;;;;;;14.75;2.45;;;;;;;23.34;43.60;102861.94;6123783;23;20010;-85
2022/10/06 09:01:08;;;;;;;13.07;2.35;;;;;;;23.72;42.71;102856.00;6122985;23;20413;-85
2022/10/06 09:03:36;;;;;;;8.10;1.98;;;;;;;24.08;39.49;102858.16;6124010;23;20410;-86
2022/10/06 09:06:17;;;;;;;16.40;2.70;;;;;;;24.16;40.71;102863.94;6124524;23;20012;-85
2022/10/06 09:08:52;;;;;;;9.73;2.30;;;;;;;23.91;40.35;102876.31;6123496;23;20335;-85
2022/10/06 09:11:30;;;;;;;8.60;2.28;;;;;;;24.69;39.14;102876.59;6123114;23;20378;-85
2022/10/06 09:14:09;;;;;;;12.70;2.65;;;;;;;24.90;38.62;102874.28;6122200;23;20016;-85
2022/10/06 09:16:39;;;;;;;11.82;2.35;;;;;;;25.26;37.76;102888.09;6123732;23;20005;-86
2022/10/06 09:19:14;;;;;;;12.43;2.53;;;;;;;26.10;37.51;102880.22;6123924;23;20012;-85
2022/10/06 09:21:46;;;;;;;13.43;1.98;;;;;;;25.89;35.50;102887.22;6121026;23;20096;-85
2022/10/06 09:24:34;;;;;;;7.40;1.85;;;;;;;25.91;36.49;102879.84;6124216;23;20445;-85
2022/10/06 09:27:15;;;;;;;10.15;2.50;;;;;;;25.99;35.14;102887.41;6123842;23;20005;-85
2022/10/06 09:29:41;;;;;;;10.77;2.13;;;;;;;26.37;33.62;102887.28;6123312;23;20077;-85
2022/10/06 09:32:06;;;;;;;9.15;2.78;;;;;;;25.88;34.03;102889.06;6122984;23;20084;-85
2022/10/06 09:34:47;;;;;;;5.78;2.40;;;;;;;26.28;34.57;102896.09;6123862;23;20002;-86
2022/10/06 09:37:13;;;;;;;10.90;2.10;;;;;;;26.89;31.92;102897.78;6124441;23;20005;-85
2022/10/06 09:39:43;;;;;;;9.40;2.10;;;;;;;27.41;32.53;102903.72;6123150;23;20420;-85
2022/10/06 09:42:28;;;;;;;9.75;2.63;;;;;;;27.77;32.58;102904.53;6122607;23;20009;-86
2022/10/06 09:45:15;;;;;;;8.20;2.10;;;;;;;27.78;31.81;102906.25;6123550;23;20010;-85
2022/10/06 09:47:45;;;;;;;11.23;2.28;;;;;;;27.21;31.78;102905.31;6121447;23;20006;-86
2022/10/06 09:50:20;;;;;;;9.88;2.22;;;;;;;27.92;30.10;102912.31;6123372;23;20085;-86
2022/10/06 09:53:02;;;;;;;9.57;2.17;;;;;;;27.37;32.26;102910.38;6123050;23;20005;-86
2022/10/06 09:55:40;;;;;;;11.85;2.10;;;;;;;26.20;33.70;102902.09;6122076;23;20405;-86
2022/10/06 09:58:22;;;;;;;9.13;2.20;;;;;;;26.47;34.17;102910.06;6122889;23;20002;-87
2022/10/06 10:00:54;;;;;;;9.57;2.33;;;;;;;27.66;31.95;102910.81;6122212;23;20005;-86
2022/10/06 10:03:20;;;;;;;8.68;2.10;;;;;;;28.87;29.41;102907.13;6123376;23;20014;-86
2022/10/06 10:05:49;;;;;;;9.95;2.28;;;;;;;29.38;29.40;102905.50;6123322;23;20002;-87
2022/10/06 10:08:29;;;;;;;13.45;2.30;;;;;;;28.53;30.64;102908.25;6123424;23;20002;-86
2022/10/06 10:11:07;;;;;;;8.68;1.92;;;;;;;28.73;30.35;102902.88;6123023;23;20458;-86
2022/10/06 10:13:42;;;;;;;7.25;1.77;;;;;;;29.55;29.42;102912.22;6121698;23;20064;-86
2022/10/06 10:16:14;;;;;;;8.57;1.92;;;;;;;29.05;27.66;102906.56;6121485;23;20313;-86
2022/10/06 10:18:43;;;;;;;;;;;;;;;29.43;30.69;102912.28;6123361;23;20002;-87
2022/10/06 10:21:09;;;;;;;8.93;1.90;;;;;;;29.45;26.97;102904.81;6122464;23;19995;-86
2022/10/06 10:23:37;;;;;;;8.27;2.70;;;;;;;29.70;27.62;102909.00;6123253;23;20006;-86
2022/10/06 10:26:25;;;;;;;7.72;2.08;;;;;;;29.29;29.09;102911.75;6121506;23;20061;-87
2022/10/06 10:29:13;;;;;;;9.43;2.08;;;;;;;29.98;26.67;102915.56;6122740;23;20076;-86
2022/10/06 10:31:42;;;;;;;6.95;2.20;;;;;;;29.30;26.95;102908.03;6122245;23;20320;-87
2022/10/06 10:34:43;;;;;;;9.00;2.10;;;;;;;29.17;27.88;102916.41;6123319;23;20506;-86
2022/10/06 10:37:14;;;;;;;8.73;2.30;;;;;;;29.26;27.36;102918.34;6123159;23;20006;-86
2022/10/06 10:40:00;;;;;;;6.15;1.73;;;;;;;29.70;28.19;102916.28;6121350;23;20010;-87
2022/10/06 10:42:47;;;;;;;7.00;1.88;;;;;;;30.59;26.25;102917.28;6122546;23;20346;-87
2022/10/06 10:45:33;;;;;;;12.15;2.20;;;;;;;30.64;25.72;102919.59;6121743;23;20013;-85
2022/10/06 10:48:03;;;;;;;5.13;1.60;;;;;;;30.43;24.36;102906.91;6121143;23;20192;-87
2022/10/06 10:50:33;;;;;;;9.10;2.08;;;;;;;30.71;25.09;102909.84;6122742;23;20013;-88
2022/10/06 10:53:17;;;;;;;7.82;1.38;;;;;;;30.73;25.13;102907.81;6122746;23;20673;-86
2022/10/06 10:55:46;;;;;;;7.25;1.70;;;;;;;30.12;25.12;102921.59;6121694;23;20006;-86
2022/10/06 10:58:25;;;;;;;7.80;2.00;;;;;;;29.89;25.29;102923.69;6123288;23;20010;-86
2022/10/06 11:00:58;;;;;;;5.20;1.70;;;;;;;30.12;24.32;102918.88;6120653;23;20010;-87
2022/10/06 11:03:23;;;;;;;10.38;2.00;;;;;;;29.93;24.39;102908.78;6123232;23;20341;-86
2022/10/06 11:06:22;;;;;;;6.88;1.73;;;;;;;29.88;25.37;102922.81;6122976;23;20009;-87
2022/10/06 11:08:54;;;;;;;5.97;1.73;;;;;;;29.66;25.48;102921.19;6099689;23;20006;-87
2022/10/06 11:11:41;;;;;;;8.13;1.85;;;;;;;29.52;26.43;102913.34;6122033;23;20521;-87
2022/10/06 11:14:31;;;;;;;7.18;1.83;;;;;;;29.63;24.86;102920.56;6123527;23;20315;-86
2022/10/06 11:17:12;;;;;;;4.60;1.95;;;;;;;29.50;25.43;102920.75;6097855;23;20017;-87
2022/10/06 11:20:09;;;;;;;6.78;1.80;;;;;;;29.05;27.19;102931.97;6124206;23;20010;-87
2022/10/06 11:22:42;;;;;;;4.57;1.80;;;;;;;28.54;26.04;102929.91;6122549;23;20018;-86
2022/10/06 11:25:19;;;;;;;7.93;2.25;;;;;;;28.33;26.27;102929.81;6123423;23;20045;-87
2022/10/06 11:27:56;;;;;;;5.93;1.90;;;;;;;27.71;27.35;102933.94;6124451;23;20339;-88
2022/10/06 11:30:25;;;;;;;7.32;2.30;;;;;;;27.32;29.35;102928.91;6124547;23;20040;-86
2022/10/06 11:33:16;;;;;;;5.82;2.35;;;;;;;26.86;29.51;102937.84;6124249;23;20006;-86
2022/10/06 11:35:43;;;;;;;7.65;2.80;;;;;;;26.82;29.11;102926.41;6125001;23;20010;-87
2022/10/06 11:38:17;;;;;;;6.57;2.13;;;;;;;26.71;30.20;102918.19;6124611;23;20342;-87
2022/10/06 11:40:59;;;;;;;10.30;2.17;;;;;;;26.97;30.14;102921.63;6122412;23;20009;-87
2022/10/06 11:43:54;;;;;;;8.65;2.03;;;;;;;26.31;30.12;102923.88;6123169;23;20010;-87
2022/10/06 11:46:41;;;;;;;6.63;2.35;;;;;;;26.61;30.50;102911.72;6124160;23;20041;-88
2022/10/06 11:49:28;;;;;;;8.38;2.40;;;;;;;26.20;30.42;102924.66;6124505;23;20001;-87